Time;durP1;ratioP1;P1;durP2;ratioP2;P2;SDS_P1;SDS_P2;PMS_P1;PMS_P2;Temp;Humidity;BMP_temperature;BMP_pressure;BME280_temperature;BME280_humidity;BME280_pressure;Samples;Min_cycle;Max_cycle;Signal;HPM_P1;HPM_P2
2023/03/03 00:02:07;;;;;;;23.35;17.65;;;2.80;99.90;;;;;;5017082;28;20203;-73
2023/03/03 00:04:33;;;;;;;24.10;18.43;;;2.90;99.90;;;;;;5020342;28;20226;-74
2023/03/03 00:06:58;;;;;;;32.40;19.00;;;2.80;99.90;;;;;;5019993;28;20284;-74
2023/03/03 00:09:24;;;;;;;28.87;19.27;;;2.70;99.90;;;;;;5017419;28;20208;-74
2023/03/03 00:11:54;;;;;;;26.43;19.53;;;2.70;99.90;;;;;;5016973;28;20896;-76
2023/03/03 00:14:28;;;;;;;27.07;18.40;;;2.60;99.90;;;;;;5019007;28;20280;-74
2023/03/03 00:16:55;;;;;;;30.23;18.90;;;2.60;99.90;;;;;;5017813;28;20185;-74
2023/03/03 00:19:22;;;;;;;24.67;18.33;;;2.50;99.90;;;;;;5015917;28;20271;-74
2023/03/03 00:21:50;;;;;;;24.53;17.93;;;2.50;99.90;;;;;;5015579;28;20193;-74
2023/03/03 00:24:27;;;;;;;26.70;18.93;;;2.60;99.90;;;;;;5014261;28;20204;-74
2023/03/03 00:27:00;;;;;;;26.47;19.53;;;2.50;99.90;;;;;;5016321;28;20180;-74
2023/03/03 00:29:35;;;;;;;27.27;18.40;;;2.50;99.90;;;;;;5015133;28;20272;-74
2023/03/03 00:32:20;;;;;;;28.80;19.13;;;2.40;99.90;;;;;;5016681;28;20659;-74
2023/03/03 00:34:46;;;;;;;28.87;19.00;;;2.40;99.90;;;;;;5017553;28;20189;-74
2023/03/03 00:37:33;;;;;;;24.20;18.90;;;2.40;99.90;;;;;;5015510;28;20230;-74
2023/03/03 00:40:25;;;;;;;22.47;16.63;;;2.40;99.90;;;;;;5014443;28;20308;-73
2023/03/03 00:42:56;;;;;;;27.47;17.53;;;2.30;99.90;;;;;;5016473;28;20532;-73
2023/03/03 00:45:53;;;;;;;25.37;17.00;;;2.30;99.90;;;;;;5015501;28;20262;-73
2023/03/03 00:48:50;;;;;;;27.80;18.17;;;2.30;99.90;;;;;;5014642;28;20722;-74
2023/03/03 00:51:22;;;;;;;28.10;20.17;;;2.30;99.90;;;;;;5013046;28;20208;-73
2023/03/03 00:53:48;;;;;;;27.00;18.03;;;2.20;99.90;;;;;;5014136;28;20173;-72
2023/03/03 00:56:14;;;;;;;26.47;17.90;;;2.10;99.90;;;;;;5017133;28;20176;-73
2023/03/03 00:58:39;;;;;;;25.00;17.80;;;2.10;99.90;;;;;;5013072;28;20254;-73
2023/03/03 01:01:05;;;;;;;25.33;18.30;;;2.00;99.90;;;;;;5015680;28;23750;-72
2023/03/03 01:03:31;;;;;;;28.57;18.47;;;2.00;99.90;;;;;;5016065;28;20260;-73
2023/03/03 01:05:56;;;;;;;23.93;18.27;;;1.90;99.90;;;;;;5014638;28;20180;-74
2023/03/03 01:08:22;;;;;;;27.00;18.00;;;1.90;99.90;;;;;;5013307;28;20232;-74
2023/03/03 01:10:58;;;;;;;31.13;18.03;;;1.90;99.90;;;;;;5014499;28;20216;-73
2023/03/03 01:13:31;;;;;;;28.80;19.07;;;1.80;99.90;;;;;;5014800;28;20181;-73
2023/03/03 01:15:59;;;;;;;28.17;19.57;;;1.80;99.90;;;;;;5014846;28;20185;-73
2023/03/03 01:18:25;;;;;;;25.40;17.83;;;1.80;99.90;;;;;;5015581;28;20255;-73
2023/03/03 01:20:51;;;;;;;26.23;18.23;;;1.70;99.90;;;;;;5014395;28;20209;-73
2023/03/03 01:23:16;;;;;;;28.37;18.40;;;1.70;99.90;;;;;;5014033;28;20212;-73
2023/03/03 01:25:42;;;;;;;28.70;19.37;;;1.70;99.90;;;;;;5016211;28;20177;-73
2023/03/03 01:28:08;;;;;;;26.80;18.47;;;1.60;99.90;;;;;;5013514;28;20575;-74
2023/03/03 01:30:34;;;;;;;25.33;18.77;;;1.60;99.90;;;;;;5015101;28;20683;-74
2023/03/03 01:33:00;;;;;;;24.83;17.53;;;1.60;99.90;;;;;;5012970;28;20235;-74
2023/03/03 01:35:25;;;;;;;26.47;18.93;;;1.50;99.90;;;;;;5015430;28;20185;-74
2023/03/03 01:37:51;;;;;;;30.60;20.70;;;1.60;99.90;;;;;;5015587;28;20914;-74
2023/03/03 01:40:23;;;;;;;29.47;19.83;;;1.50;99.90;;;;;;5015147;28;20209;-74
2023/03/03 01:42:49;;;;;;;25.60;18.87;;;1.50;99.90;;;;;;5018863;28;20272;-74
2023/03/03 01:45:24;;;;;;;28.80;19.60;;;1.50;99.90;;;;;;5017015;28;20191;-73
2023/03/03 01:48:08;;;;;;;25.83;18.93;;;1.50;99.90;;;;;;5021753;28;20730;-73
2023/03/03 01:50:56;;;;;;;23.83;18.60;;;1.50;99.90;;;;;;5015182;28;20185;-73
2023/03/03 01:53:35;;;;;;;27.80;18.57;;;1.50;99.90;;;;;;5014236;28;20245;-73
2023/03/03 01:56:04;;;;;;;25.47;19.33;;;1.50;99.90;;;;;;5013588;28;20176;-74
2023/03/03 01:58:57;;;;;;;26.77;18.20;;;1.50;99.90;;;;;;5013216;28;20577;-74
2023/03/03 02:01:26;;;;;;;26.50;18.10;;;1.50;99.90;;;;;;5012536;28;20746;-74
2023/03/03 02:03:54;;;;;;;30.27;19.17;;;1.40;99.90;;;;;;5013444;28;20653;-74
2023/03/03 02:06:23;;;;;;;27.87;19.47;;;1.40;99.90;;;;;;5013837;28;20265;-74
2023/03/03 02:08:55;;;;;;;26.23;18.33;;;1.40;99.90;;;;;;5012824;28;20747;-74
2023/03/03 02:11:21;;;;;;;23.33;17.80;;;1.30;99.90;;;;;;5013791;28;20218;-73
2023/03/03 02:13:47;;;;;;;25.87;17.20;;;1.30;99.90;;;;;;5012020;28;20540;-73
2023/03/03 02:16:13;;;;;;;27.50;18.73;;;1.30;99.90;;;;;;5014228;28;20736;-73
2023/03/03 02:18:39;;;;;;;25.37;17.73;;;1.20;99.90;;;;;;5012921;28;20223;-73
2023/03/03 02:21:20;;;;;;;26.03;18.17;;;1.20;99.90;;;;;;5013624;28;20779;-73
2023/03/03 02:24:24;;;;;;;27.30;17.83;;;1.30;99.90;;;;;;5011260;28;20528;-73
2023/03/03 02:26:50;;;;;;;28.60;19.10;;;1.30;99.90;;;;;;5014241;28;20185;-73
2023/03/03 02:29:16;;;;;;;25.03;16.80;;;1.30;99.90;;;;;;5012621;28;20310;-73
2023/03/03 02:31:42;;;;;;;23.53;17.57;;;1.30;99.90;;;;;;5014324;28;20219;-73
2023/03/03 02:34:08;;;;;;;26.67;18.83;;;1.30;99.90;;;;;;5012767;28;20568;-73
2023/03/03 02:36:36;;;;;;;24.60;18.60;;;1.20;99.90;;;;;;5011304;28;20181;-73
2023/03/03 02:39:01;;;;;;;27.77;18.27;;;1.10;99.90;;;;;;5011290;28;20223;-74
2023/03/03 02:41:39;;;;;;;21.77;16.37;;;1.10;99.90;;;;;;5015403;28;20522;-73
2023/03/03 02:44:14;;;;;;;25.43;17.17;;;1.10;99.90;;;;;;5017274;28;20181;-74
2023/03/03 02:46:43;;;;;;;25.97;17.63;;;1.10;99.90;;;;;;5034556;28;20574;-74
2023/03/03 02:49:10;;;;;;;23.90;16.03;;;1.20;99.90;;;;;;5021859;28;20758;-74
2023/03/03 02:51:36;;;;;;;23.50;16.37;;;1.20;99.90;;;;;;5016316;28;20666;-74
2023/03/03 02:54:03;;;;;;;23.07;16.97;;;1.10;99.90;;;;;;5016431;28;20176;-73
2023/03/03 02:56:28;;;;;;;28.47;18.00;;;1.10;99.90;;;;;;5016440;28;20180;-73
2023/03/03 02:58:54;;;;;;;22.53;16.27;;;1.00;99.90;;;;;;5017674;28;20205;-74
2023/03/03 03:01:20;;;;;;;25.53;17.97;;;1.00;99.90;;;;;;5015981;28;20181;-73
2023/03/03 03:03:46;;;;;;;27.73;17.73;;;1.00;99.90;;;;;;5018327;28;20189;-74
2023/03/03 03:06:11;;;;;;;25.67;18.77;;;1.00;99.90;;;;;;5015569;28;20179;-74
2023/03/03 03:08:37;;;;;;;24.40;16.50;;;0.90;99.90;;;;;;5016409;28;20213;-74
2023/03/03 03:11:04;;;;;;;27.33;18.13;;;0.90;99.90;;;;;;5014565;28;20383;-73
2023/03/03 03:13:31;;;;;;;24.97;17.73;;;0.90;99.90;;;;;;5016081;28;20181;-74
2023/03/03 03:15:56;;;;;;;26.60;17.60;;;0.80;99.90;;;;;;5014755;28;20191;-73
2023/03/03 03:18:22;;;;;;;25.90;17.00;;;0.80;99.90;;;;;;5014393;28;20200;-75
2023/03/03 03:20:48;;;;;;;24.00;17.67;;;0.80;99.90;;;;;;5013271;28;20208;-73
2023/03/03 03:23:14;;;;;;;27.20;17.37;;;0.80;99.90;;;;;;5015105;28;20283;-73
2023/03/03 03:25:44;;;;;;;27.77;17.53;;;0.70;99.90;;;;;;5013946;28;20185;-77
2023/03/03 03:28:14;;;;;;;27.53;17.40;;;0.70;99.90;;;;;;5009667;28;20249;-74
2023/03/03 03:30:41;;;;;;;25.93;16.20;;;0.70;99.90;;;;;;5014224;28;20184;-74
2023/03/03 03:33:07;;;;;;;23.27;16.17;;;0.70;99.90;;;;;;5013474;28;20196;-74
2023/03/03 03:35:33;;;;;;;24.00;17.53;;;0.70;99.90;;;;;;5013697;28;20189;-75
2023/03/03 03:37:59;;;;;;;23.50;16.23;;;0.70;99.90;;;;;;5015200;28;20647;-75
2023/03/03 03:40:25;;;;;;;22.07;16.90;;;0.70;99.90;;;;;;5018530;28;20979;-75
2023/03/03 03:42:54;;;;;;;25.10;16.33;;;0.70;99.90;;;;;;5015843;28;20648;-74
2023/03/03 03:45:20;;;;;;;24.23;15.73;;;0.70;99.90;;;;;;5015376;28;20755;-74
2023/03/03 03:47:46;;;;;;;24.33;16.17;;;0.70;99.90;;;;;;5016012;28;20228;-74
2023/03/03 03:50:11;;;;;;;26.90;17.33;;;0.70;99.90;;;;;;5016889;28;20185;-74
2023/03/03 03:52:37;;;;;;;23.33;16.00;;;0.70;99.90;;;;;;5015567;28;20227;-74
2023/03/03 03:55:03;;;;;;;22.13;15.37;;;0.70;99.90;;;;;;5016693;28;20213;-73
2023/03/03 03:57:29;;;;;;;20.63;16.03;;;0.70;99.90;;;;;;5015295;28;20188;-73
2023/03/03 03:59:54;;;;;;;24.60;15.83;;;0.70;99.90;;;;;;5014231;28;20231;-73
2023/03/03 04:02:20;;;;;;;20.17;15.37;;;0.70;99.90;;;;;;5016705;28;20196;-73
2023/03/03 04:04:46;;;;;;;21.30;15.10;;;0.60;99.90;;;;;;5018304;28;20809;-72
2023/03/03 04:07:12;;;;;;;23.03;16.33;;;0.60;99.90;;;;;;5020249;28;20739;-73
2023/03/03 04:09:37;;;;;;;20.33;14.37;;;0.60;99.90;;;;;;5018185;28;20197;-72
2023/03/03 04:12:03;;;;;;;22.47;16.67;;;0.60;99.90;;;;;;5018170;28;20686;-73
2023/03/03 04:14:29;;;;;;;22.67;16.30;;;0.60;99.90;;;;;;5014933;28;20196;-73
2023/03/03 04:16:54;;;;;;;22.70;16.27;;;0.50;99.90;;;;;;5018568;28;20186;-73
2023/03/03 04:19:20;;;;;;;24.93;15.23;;;0.50;99.90;;;;;;5016683;28;20213;-74
2023/03/03 04:21:46;;;;;;;22.17;16.27;;;0.40;99.90;;;;;;5015954;28;20876;-74
2023/03/03 04:24:11;;;;;;;25.10;16.20;;;0.40;99.90;;;;;;5015932;28;20665;-74
2023/03/03 04:26:37;;;;;;;29.93;16.80;;;0.40;99.90;;;;;;5016939;28;20184;-73
2023/03/03 04:29:02;;;;;;;22.53;16.60;;;0.40;99.90;;;;;;5015432;28;20200;-73
2023/03/03 04:31:28;;;;;;;22.83;16.27;;;0.40;99.90;;;;;;5015865;28;20196;-73
2023/03/03 04:33:54;;;;;;;21.20;16.13;;;0.30;99.90;;;;;;5016977;28;20193;-73
2023/03/03 04:36:20;;;;;;;23.50;15.77;;;0.40;99.90;;;;;;5017586;28;20579;-72
2023/03/03 04:38:46;;;;;;;23.43;16.53;;;0.40;99.90;;;;;;5015559;28;20690;-73
2023/03/03 04:41:12;;;;;;;21.67;16.00;;;0.40;99.90;;;;;;5018679;28;20269;-73
2023/03/03 04:43:38;;;;;;;22.80;15.60;;;0.40;99.90;;;;;;5020018;28;20182;-74
2023/03/03 04:46:03;;;;;;;24.73;17.27;;;0.40;99.90;;;;;;5014851;28;20309;-74
2023/03/03 04:48:29;;;;;;;21.87;16.03;;;0.30;99.90;;;;;;5016696;28;20200;-74
2023/03/03 04:50:55;;;;;;;24.00;14.57;;;0.40;99.90;;;;;;5018602;28;20195;-74
2023/03/03 04:53:20;;;;;;;21.80;16.13;;;0.40;99.90;;;;;;5015481;28;20189;-73
2023/03/03 04:55:48;;;;;;;23.00;16.20;;;0.40;99.90;;;;;;5016804;28;20185;-74
2023/03/03 04:58:14;;;;;;;21.43;15.30;;;0.50;99.90;;;;;;5018641;28;20205;-74
2023/03/03 05:00:40;;;;;;;26.47;16.43;;;0.60;99.90;;;;;;5018048;28;20215;-72
2023/03/03 05:03:06;;;;;;;26.20;15.57;;;0.60;99.90;;;;;;5016375;28;20181;-73
2023/03/03 05:05:31;;;;;;;21.23;15.00;;;0.60;99.90;;;;;;5015999;28;20233;-73
2023/03/03 05:07:57;;;;;;;22.47;15.50;;;0.70;99.90;;;;;;5016592;28;20177;-73
2023/03/03 05:10:22;;;;;;;21.83;16.07;;;0.80;99.90;;;;;;5014189;28;20199;-73
2023/03/03 05:12:48;;;;;;;24.97;16.17;;;0.90;99.90;;;;;;5013268;28;20263;-74
2023/03/03 05:15:14;;;;;;;21.23;15.30;;;0.90;99.90;;;;;;5014859;28;20188;-74
2023/03/03 05:17:40;;;;;;;21.63;15.27;;;0.90;99.90;;;;;;5012988;28;20200;-73
2023/03/03 05:20:07;;;;;;;23.40;16.93;;;0.90;99.90;;;;;;5016215;28;20248;-73
2023/03/03 05:22:33;;;;;;;21.60;15.10;;;0.90;99.90;;;;;;5013620;28;20541;-73
2023/03/03 05:24:58;;;;;;;22.03;15.90;;;0.80;99.90;;;;;;5015263;28;20169;-72
2023/03/03 05:27:24;;;;;;;21.13;15.53;;;0.90;99.90;;;;;;5016687;28;20180;-73
2023/03/03 05:29:50;;;;;;;23.17;16.03;;;0.90;99.90;;;;;;5011227;28;20240;-74
2023/03/03 05:32:15;;;;;;;21.93;15.37;;;1.00;99.90;;;;;;5016837;28;20190;-72
2023/03/03 05:34:41;;;;;;;25.70;15.67;;;1.10;99.90;;;;;;5016313;28;20474;-73
2023/03/03 05:37:07;;;;;;;26.00;16.30;;;1.10;99.90;;;;;;5013337;28;20194;-74
2023/03/03 05:39:33;;;;;;;23.93;15.50;;;1.00;99.90;;;;;;5018472;28;20205;-74
2023/03/03 05:41:59;;;;;;;19.60;15.40;;;1.10;99.90;;;;;;5020058;28;20305;-75
2023/03/03 05:44:25;;;;;;;19.00;15.07;;;1.10;99.90;;;;;;5015781;28;20189;-74
2023/03/03 05:46:51;;;;;;;21.70;15.23;;;1.10;99.90;;;;;;5015779;28;20181;-75
2023/03/03 05:49:17;;;;;;;22.27;15.00;;;1.10;99.90;;;;;;5014178;28;20208;-76
2023/03/03 05:51:42;;;;;;;21.77;16.33;;;1.10;99.90;;;;;;5012589;28;20181;-76
2023/03/03 05:54:08;;;;;;;22.70;14.47;;;1.10;99.90;;;;;;5014509;28;20185;-74
2023/03/03 05:56:34;;;;;;;21.47;16.27;;;1.10;99.90;;;;;;5012850;28;20832;-72
2023/03/03 05:58:59;;;;;;;23.87;15.97;;;1.10;99.90;;;;;;5012596;28;20717;-73
2023/03/03 06:01:25;;;;;;;22.90;15.60;;;1.10;99.90;;;;;;5011161;28;20189;-76
2023/03/03 06:03:51;;;;;;;23.50;15.00;;;1.20;99.90;;;;;;5015158;28;20224;-75
2023/03/03 06:06:18;;;;;;;24.13;15.60;;;1.20;99.90;;;;;;5014632;28;20268;-74
2023/03/03 06:08:44;;;;;;;18.67;14.77;;;1.20;99.90;;;;;;5015561;28;20612;-74
2023/03/03 06:11:10;;;;;;;23.27;14.77;;;1.20;99.90;;;;;;5016112;28;20190;-76
2023/03/03 06:13:35;;;;;;;24.43;16.23;;;1.20;99.90;;;;;;5016240;28;20211;-80
2023/03/03 06:16:01;;;;;;;22.73;15.57;;;1.10;99.90;;;;;;5015528;28;20189;-74
2023/03/03 06:18:26;;;;;;;23.40;16.20;;;1.10;99.90;;;;;;5013171;28;20298;-74
2023/03/03 06:20:53;;;;;;;26.53;17.90;;;1.00;99.90;;;;;;5011928;28;20208;-75
2023/03/03 06:23:19;;;;;;;23.83;15.27;;;1.00;99.90;;;;;;5015371;28;20250;-78
2023/03/03 06:25:46;;;;;;;19.07;14.40;;;1.00;99.90;;;;;;5016624;28;20260;-74
2023/03/03 06:28:12;;;;;;;21.80;15.33;;;1.10;99.90;;;;;;5013474;28;20278;-79
2023/03/03 06:30:38;;;;;;;25.40;16.83;;;1.20;99.90;;;;;;5014197;28;20188;-76
2023/03/03 06:33:04;;;;;;;23.20;15.77;;;1.20;99.90;;;;;;5024725;28;20185;-74
2023/03/03 06:35:29;;;;;;;24.20;16.47;;;1.20;99.90;;;;;;5031995;28;20188;-75
2023/03/03 06:37:55;;;;;;;22.20;15.30;;;1.30;99.90;;;;;;5025572;28;20541;-75
2023/03/03 06:40:20;;;;;;;20.10;15.37;;;1.30;99.90;;;;;;5025625;28;20219;-76
2023/03/03 06:42:46;;;;;;;21.70;15.60;;;1.40;99.90;;;;;;5033205;28;20203;-77
2023/03/03 06:45:12;;;;;;;24.70;16.17;;;1.50;99.90;;;;;;5018324;28;20249;-76
2023/03/03 06:47:38;;;;;;;22.57;16.10;;;1.60;99.90;;;;;;5018444;28;20387;-77
2023/03/03 06:50:04;;;;;;;25.87;15.53;;;1.60;99.90;;;;;;5019611;28;20211;-75
2023/03/03 06:52:30;;;;;;;22.60;16.63;;;1.60;99.90;;;;;;5013804;28;20220;-74
2023/03/03 06:54:59;;;;;;;25.93;15.70;;;1.50;99.90;;;;;;5014645;28;20323;-76
2023/03/03 06:57:30;;;;;;;23.97;16.00;;;1.50;99.90;;;;;;5015499;28;20262;-79
2023/03/03 07:00:00;;;;;;;26.20;17.33;;;1.60;99.90;;;;;;5013754;28;20212;-76
2023/03/03 07:02:25;;;;;;;25.80;15.80;;;1.70;99.90;;;;;;5015262;28;20235;-74
2023/03/03 07:04:54;;;;;;;23.27;16.33;;;1.90;99.90;;;;;;5016820;28;20279;-74
2023/03/03 07:07:24;;;;;;;22.63;15.77;;;2.10;99.90;;;;;;5013336;28;20184;-74
2023/03/03 07:09:52;;;;;;;20.93;16.03;;;2.30;99.90;;;;;;5010870;28;20750;-74
2023/03/03 07:12:25;;;;;;;18.70;14.63;;;2.20;99.90;;;;;;5011222;28;20220;-73
2023/03/03 07:14:56;;;;;;;20.03;15.60;;;2.10;99.90;;;;;;5011150;28;20200;-75
2023/03/03 07:17:24;;;;;;;21.67;14.67;;;2.00;99.90;;;;;;5016802;28;20201;-73
2023/03/03 07:19:50;;;;;;;21.63;16.80;;;2.10;99.90;;;;;;5012270;28;20216;-73
2023/03/03 07:22:18;;;;;;;20.73;14.17;;;2.10;99.90;;;;;;5011219;28;20680;-74
2023/03/03 07:24:51;;;;;;;22.10;16.13;;;2.20;99.90;;;;;;5015902;28;20216;-80
2023/03/03 07:27:24;;;;;;;25.53;15.90;;;2.10;99.90;;;;;;5032749;28;20267;-75
2023/03/03 07:29:52;;;;;;;21.37;15.53;;;2.10;99.90;;;;;;5020151;28;20208;-74
2023/03/03 07:32:41;;;;;;;24.37;15.93;;;2.20;99.90;;;;;;5016229;28;20181;-73
2023/03/03 07:35:35;;;;;;;22.97;15.67;;;2.00;99.90;;;;;;5025448;28;20238;-72
2023/03/03 07:38:01;;;;;;;22.53;15.77;;;2.00;99.90;;;;;;5019603;28;20255;-73
2023/03/03 07:40:33;;;;;;;19.67;15.17;;;2.10;99.90;;;;;;5040208;28;20211;-72
2023/03/03 07:42:58;;;;;;;28.90;16.80;;;2.10;99.90;;;;;;5022716;28;20176;-72
2023/03/03 07:45:35;;;;;;;23.00;15.53;;;2.10;99.90;;;;;;5031252;28;20196;-72
2023/03/03 07:48:15;;;;;;;25.30;16.27;;;2.20;99.90;;;;;;5018557;28;20199;-72
2023/03/03 07:50:40;;;;;;;24.27;16.10;;;2.30;99.90;;;;;;5009685;28;20246;-75
2023/03/03 07:53:20;;;;;;;21.63;15.67;;;2.40;99.90;;;;;;5014723;28;20199;-77
2023/03/03 07:55:46;;;;;;;22.00;16.93;;;2.60;99.90;;;;;;5018022;28;20267;-72
2023/03/03 07:58:13;;;;;;;26.93;17.47;;;2.60;99.90;;;;;;5015995;28;21306;-77
2023/03/03 08:00:39;;;;;;;25.33;16.10;;;2.60;99.90;;;;;;5011369;28;20682;-72
2023/03/03 08:03:18;;;;;;;24.03;15.60;;;2.60;99.90;;;;;;5013336;28;20185;-78
2023/03/03 08:05:47;;;;;;;23.73;16.33;;;2.70;99.90;;;;;;5011116;28;20211;-72
2023/03/03 08:08:29;;;;;;;23.47;15.27;;;2.90;99.90;;;;;;5016064;28;20212;-70
2023/03/03 08:11:03;;;;;;;21.23;15.43;;;3.10;99.90;;;;;;5012266;28;20258;-74
2023/03/03 08:13:37;;;;;;;20.77;15.40;;;3.30;99.90;;;;;;5011159;28;20202;-73
2023/03/03 08:16:09;;;;;;;26.07;16.17;;;3.50;99.90;;;;;;5011853;28;20184;-72
2023/03/03 08:18:42;;;;;;;23.87;16.83;;;3.50;99.90;;;;;;5014507;28;20649;-70
2023/03/03 08:21:07;;;;;;;21.60;15.90;;;3.70;99.90;;;;;;5009946;28;20216;-73
2023/03/03 08:23:33;;;;;;;22.90;16.43;;;3.80;99.90;;;;;;5014849;28;20523;-73
2023/03/03 08:25:58;;;;;;;21.60;15.57;;;4.00;99.90;;;;;;5011694;28;20299;-73
2023/03/03 08:28:24;;;;;;;21.23;15.90;;;4.10;99.90;;;;;;5018101;28;20209;-73
2023/03/03 08:30:50;;;;;;;23.65;16.42;;;4.20;99.90;;;;;;5019335;28;20193;-73
2023/03/03 08:33:17;;;;;;;21.13;16.13;;;4.40;99.90;;;;;;5015505;28;20204;-74
2023/03/03 08:35:43;;;;;;;23.17;16.17;;;4.40;99.90;;;;;;5010704;28;20212;-74
2023/03/03 08:38:10;;;;;;;24.65;16.85;;;4.40;99.90;;;;;;5012124;28;21570;-74
2023/03/03 08:40:35;;;;;;;23.50;16.50;;;4.50;99.90;;;;;;5014489;28;20242;-73
2023/03/03 08:43:01;;;;;;;24.10;16.83;;;4.60;99.90;;;;;;5014269;28;20566;-74
2023/03/03 08:45:27;;;;;;;23.30;16.42;;;4.60;99.90;;;;;;5017053;28;20303;-73
2023/03/03 08:47:53;;;;;;;25.70;17.17;;;4.70;99.90;;;;;;5014493;28;20215;-74
2023/03/03 08:50:19;;;;;;;22.73;16.77;;;4.90;99.90;;;;;;5015332;28;20225;-74
2023/03/03 08:52:45;;;;;;;25.75;17.92;;;5.10;99.90;;;;;;5015670;28;20198;-73
2023/03/03 08:55:11;;;;;;;22.17;15.35;;;5.20;99.90;;;;;;5015911;28;20180;-75
2023/03/03 08:57:38;;;;;;;21.00;15.85;;;5.40;99.90;;;;;;5012230;28;20215;-76
2023/03/03 09:00:08;;;;;;;22.05;15.95;;;5.70;99.90;;;;;;5013049;28;20212;-75
2023/03/03 09:02:34;;;;;;;25.35;18.35;;;5.80;99.90;;;;;;5015789;28;20620;-77
2023/03/03 09:05:00;;;;;;;24.77;17.95;;;6.20;99.90;;;;;;5014024;28;20698;-76
2023/03/03 09:07:25;;;;;;;19.92;15.75;;;6.80;99.90;;;;;;5016218;28;20271;-77
2023/03/03 09:09:51;;;;;;;21.33;16.58;;;7.10;99.90;;;;;;5012806;28;20212;-77
2023/03/03 09:12:36;;;;;;;21.15;16.15;;;7.30;99.90;;;;;;5013873;28;20200;-76
2023/03/03 09:15:14;;;;;;;24.10;18.00;;;7.60;99.40;;;;;;5013738;28;20256;-77
2023/03/03 09:17:40;;;;;;;24.67;17.00;;;8.20;98.40;;;;;;5013917;28;20196;-77
2023/03/03 09:20:42;;;;;;;21.45;16.80;;;8.90;97.00;;;;;;5013653;28;20205;-77
2023/03/03 09:23:36;;;;;;;23.70;17.35;;;9.40;95.20;;;;;;5013811;28;20172;-77
2023/03/03 09:26:10;;;;;;;20.75;16.80;;;9.70;93.30;;;;;;5011579;28;20185;-76
2023/03/03 09:28:36;;;;;;;22.15;17.38;;;9.70;92.40;;;;;;5013090;28;20204;-76
2023/03/03 09:31:04;;;;;;;22.60;17.73;;;9.90;91.70;;;;;;5015823;28;20180;-74
2023/03/03 09:33:43;;;;;;;25.08;18.30;;;10.20;90.90;;;;;;5015363;28;20284;-74
2023/03/03 09:36:24;;;;;;;23.70;17.05;;;11.30;86.90;;;;;;5014332;28;20211;-74
2023/03/03 09:38:50;;;;;;;23.67;16.48;;;12.60;80.80;;;;;;5014088;28;20204;-74
2023/03/03 09:41:44;;;;;;;20.70;15.82;;;14.20;74.50;;;;;;5015128;28;20240;-74
2023/03/03 09:44:34;;;;;;;21.33;16.30;;;15.80;69.30;;;;;;5012260;28;20548;-80
2023/03/03 09:47:37;;;;;;;23.73;17.75;;;17.90;61.50;;;;;;5015104;28;20173;-80
2023/03/03 09:50:40;;;;;;;20.73;16.40;;;19.10;55.90;;;;;;5017560;28;20652;-74
2023/03/03 09:53:20;;;;;;;22.95;16.52;;;19.60;53.20;;;;;;5017860;28;20465;-77
2023/03/03 09:55:53;;;;;;;20.23;17.90;;;20.30;51.30;;;;;;5014423;28;20189;-77
2023/03/03 09:58:44;;;;;;;22.63;17.52;;;20.60;49.10;;;;;;5019772;28;20219;-74
2023/03/03 10:01:15;;;;;;;20.85;17.33;;;20.20;49.80;;;;;;5014916;28;20213;-77
2023/03/03 10:03:53;;;;;;;19.45;17.45;;;20.30;48.90;;;;;;5019623;28;20189;-74
2023/03/03 10:06:30;;;;;;;22.05;16.55;;;21.00;49.10;;;;;;5015757;28;20185;-83
2023/03/03 10:09:29;;;;;;;20.27;16.52;;;22.20;47.90;;;;;;5014408;28;20209;-77
2023/03/03 10:11:55;;;;;;;19.67;17.63;;;23.60;46.20;;;;;;5014221;28;20191;-77
2023/03/03 10:14:28;;;;;;;19.95;16.75;;;24.00;44.30;;;;;;5012794;28;20189;-77
2023/03/03 10:17:15;;;;;;;19.85;17.17;;;23.20;44.70;;;;;;5013520;28;20231;-77
2023/03/03 10:20:08;;;;;;;20.20;17.42;;;23.00;44.00;;;;;;5012433;28;20211;-77
2023/03/03 10:22:49;;;;;;;19.67;17.67;;;22.70;44.30;;;;;;5005132;28;20197;-77
2023/03/03 10:25:33;;;;;;;20.20;17.98;;;23.10;44.40;;;;;;5013133;28;20498;-76
2023/03/03 10:28:31;;;;;;;20.02;17.27;;;23.80;44.10;;;;;;5011780;28;20266;-77
2023/03/03 10:31:27;;;;;;;19.13;17.10;;;25.10;43.10;;;;;;5013990;28;20191;-76
2023/03/03 10:34:04;;;;;;;19.60;17.55;;;25.60;40.50;;;;;;5013102;28;20488;-75
2023/03/03 10:36:52;;;;;;;22.27;17.50;;;25.00;42.10;;;;;;5013802;28;20216;-75
2023/03/03 10:39:39;;;;;;;17.50;15.55;;;25.80;40.00;;;;;;5014673;28;20231;-77
2023/03/03 10:42:22;;;;;;;19.35;17.35;;;25.90;39.90;;;;;;5014386;28;20176;-74
2023/03/03 10:45:12;;;;;;;18.70;16.70;;;25.70;40.20;;;;;;5015101;28;20620;-79
2023/03/03 10:47:59;;;;;;;20.27;17.58;;;25.30;40.20;;;;;;5011149;28;20270;-75
2023/03/03 10:50:58;;;;;;;20.02;17.95;;;25.30;41.00;;;;;;5012865;28;20278;-75
2023/03/03 10:53:36;;;;;;;20.20;18.13;;;25.50;41.00;;;;;;5010763;28;20625;-75
2023/03/03 10:56:20;;;;;;;19.15;17.08;;;25.90;39.70;;;;;;5013066;28;20185;-75
2023/03/03 10:59:14;;;;;;;18.35;15.68;;;25.80;39.80;;;;;;5010699;28;20337;-75
2023/03/03 11:01:55;;;;;;;19.63;16.98;;;26.30;39.60;;;;;;5014003;28;20207;-76
2023/03/03 11:04:43;;;;;;;20.85;17.45;;;26.10;39.50;;;;;;5012822;28;20592;-77
2023/03/03 11:07:26;;;;;;;20.38;18.00;;;25.70;40.90;;;;;;5014377;28;20181;-78
2023/03/03 11:10:26;;;;;;;18.40;16.52;;;26.50;40.40;;;;;;5013367;28;20196;-75
2023/03/03 11:13:07;;;;;;;18.23;16.27;;;27.60;38.20;;;;;;5010115;28;20180;-75
2023/03/03 11:15:33;;;;;;;17.92;16.10;;;28.30;37.00;;;;;;5012731;28;20374;-75
2023/03/03 11:18:15;;;;;;;20.67;16.65;;;28.40;36.90;;;;;;5014109;28;20661;-75
2023/03/03 11:21:26;;;;;;;19.63;16.77;;;28.70;36.90;;;;;;5012646;28;20212;-77
2023/03/03 11:24:08;;;;;;;18.77;16.58;;;28.20;38.20;;;;;;5009496;28;20690;-78
2023/03/03 11:26:45;;;;;;;19.08;16.90;;;27.60;37.90;;;;;;5012373;28;20185;-77
2023/03/03 11:29:20;;;;;;;18.55;16.58;;;27.80;37.50;;;;;;5010631;28;20288;-76
2023/03/03 11:31:47;;;;;;;17.55;15.85;;;27.50;38.60;;;;;;5011317;28;20220;-74
2023/03/03 11:34:47;;;;;;;18.48;16.67;;;27.70;38.70;;;;;;5009545;28;20195;-73
2023/03/03 11:37:17;;;;;;;18.02;16.17;;;27.80;38.40;;;;;;5011704;28;20173;-73
2023/03/03 11:39:43;;;;;;;21.92;17.45;;;28.00;38.10;;;;;;5010442;28;20283;-74
2023/03/03 11:42:21;;;;;;;20.38;17.73;;;28.30;38.20;;;;;;5007679;28;20724;-74
2023/03/03 11:44:50;;;;;;;18.15;15.73;;;28.30;37.40;;;;;;5012707;28;20188;-74
2023/03/03 11:47:41;;;;;;;16.20;14.68;;;27.70;37.60;;;;;;5011626;28;20196;-74
2023/03/03 11:50:30;;;;;;;20.10;15.60;;;28.00;37.20;;;;;;5009982;28;20185;-74
2023/03/03 11:53:35;;;;;;;18.15;16.30;;;27.80;37.50;;;;;;5011092;28;20605;-74
2023/03/03 11:56:17;;;;;;;17.20;15.40;;;28.20;38.00;;;;;;5013055;28;20275;-76
2023/03/03 11:59:32;;;;;;;15.23;13.73;;;28.20;37.20;;;;;;5007998;28;20206;-78
2023/03/03 12:02:09;;;;;;;17.58;15.65;;;28.80;37.40;;;;;;5010035;28;20671;-73
2023/03/03 12:04:45;;;;;;;16.42;14.63;;;29.60;36.70;;;;;;5016591;28;20690;-77
2023/03/03 12:07:41;;;;;;;20.50;16.77;;;29.40;36.70;;;;;;5015185;28;20183;-73
2023/03/03 12:10:20;;;;;;;20.65;16.73;;;29.10;36.20;;;;;;5027435;28;20896;-73
2023/03/03 12:13:10;;;;;;;16.45;14.85;;;29.20;37.70;;;;;;5018335;28;20187;-75
2023/03/03 12:15:38;;;;;;;18.45;16.10;;;30.10;35.20;;;;;;5014001;28;20185;-75
2023/03/03 12:18:31;;;;;;;19.20;15.63;;;30.30;35.30;;;;;;5014886;28;20208;-75
2023/03/03 12:21:20;;;;;;;17.33;15.65;;;30.50;34.90;;;;;;5012336;28;20319;-75
2023/03/03 12:23:52;;;;;;;17.15;15.25;;;30.50;35.50;;;;;;5014704;28;20288;-75
2023/03/03 12:26:43;;;;;;;17.80;15.90;;;30.60;34.60;;;;;;5014083;28;20238;-75
2023/03/03 12:29:28;;;;;;;16.95;15.20;;;29.80;35.80;;;;;;5014831;28;20211;-73
2023/03/03 12:32:22;;;;;;;20.63;15.82;;;29.60;34.90;;;;;;5015286;28;20247;-76
2023/03/03 12:34:58;;;;;;;16.42;14.05;;;29.30;35.80;;;;;;5012613;28;20194;-73
2023/03/03 12:37:35;;;;;;;17.10;15.55;;;30.00;34.80;;;;;;5018018;28;20184;-80
2023/03/03 12:40:23;;;;;;;18.55;15.25;;;30.30;33.90;;;;;;5014802;28;20203;-74
2023/03/03 12:43:15;;;;;;;17.02;15.43;;;28.10;36.30;;;;;;5014510;28;20192;-73
2023/03/03 12:45:41;;;;;;;19.20;14.90;;;27.00;37.60;;;;;;5013844;28;20188;-76
2023/03/03 12:48:17;;;;;;;16.52;14.82;;;27.50;38.10;;;;;;5012363;28;20278;-74
2023/03/03 12:50:54;;;;;;;16.17;14.20;;;27.90;37.60;;;;;;5010939;28;20191;-74
2023/03/03 12:53:32;;;;;;;14.48;12.98;;;28.10;37.60;;;;;;5011743;28;20182;-74
2023/03/03 12:56:08;;;;;;;15.13;13.52;;;28.80;37.00;;;;;;5013946;28;20205;-76
2023/03/03 12:58:41;;;;;;;17.15;14.02;;;29.40;35.80;;;;;;5012175;28;20203;-73
2023/03/03 13:01:30;;;;;;;14.88;13.50;;;29.20;36.10;;;;;;5015050;28;20224;-76